createdAt,value
2023-02-03T00:03:12.898Z,10.6
2023-02-03T00:08:13.712Z,8.9
2023-02-03T00:13:14.384Z,10.1
2023-02-03T00:18:14.912Z,10.7
2023-02-03T00:23:15.441Z,11.2
2023-02-03T00:28:16.103Z,10
2023-02-03T00:33:16.879Z,9.2
2023-02-03T00:38:17.678Z,11.9
2023-02-03T00:43:18.262Z,10.2
2023-02-03T00:48:18.808Z,12.2
2023-02-03T00:53:19.602Z,10.5
2023-02-03T00:58:20.229Z,7.5
2023-02-03T01:03:20.776Z,8.9
2023-02-03T01:08:21.333Z,11.2
2023-02-03T01:13:21.973Z,8
2023-02-03T01:18:22.512Z,8.8
2023-02-03T01:23:23.208Z,8.5
2023-02-03T01:28:24.112Z,10.6
2023-02-03T01:33:24.675Z,7.7
2023-02-03T01:38:25.357Z,9.9
2023-02-03T01:43:25.873Z,8.6
2023-02-03T01:48:26.495Z,8.3
2023-02-03T01:53:27.302Z,7.7
2023-02-03T01:58:27.955Z,9.7
2023-02-03T02:03:28.588Z,8.6
2023-02-03T02:08:29.354Z,8.6
2023-02-03T02:13:30.328Z,8.5
2023-02-03T02:18:30.874Z,8.1
2023-02-03T02:23:31.607Z,8.2
2023-02-03T02:28:32.256Z,9.2
2023-02-03T02:33:32.795Z,7.7
2023-02-03T02:38:33.448Z,8.6
2023-02-03T02:43:34.004Z,8.6
2023-02-03T02:48:34.562Z,12.7
2023-02-03T02:53:35.311Z,9.6
2023-02-03T02:58:35.779Z,11.3
2023-02-03T03:03:36.708Z,7.8
2023-02-03T03:08:37.481Z,8
2023-02-03T03:13:38.506Z,9.3
2023-02-03T03:18:39.044Z,8.7
2023-02-03T03:23:39.718Z,9.9
2023-02-03T03:28:43.682Z,8.3
2023-02-03T03:33:44.359Z,11.7
2023-02-03T03:38:44.942Z,6.9
2023-02-03T03:43:45.552Z,11.3
2023-02-03T03:48:46.275Z,11.9
2023-02-03T03:53:47.005Z,7.9
2023-02-03T03:58:47.466Z,8.5
2023-02-03T04:03:47.984Z,8.3
2023-02-03T04:08:48.980Z,11.3
2023-02-03T04:13:49.789Z,9.9
2023-02-03T04:18:50.506Z,9.4
2023-02-03T04:23:51.318Z,7.5
2023-02-03T04:28:52.149Z,9.3
2023-02-03T04:33:53.088Z,5.9
2023-02-03T04:38:53.826Z,7.5
2023-02-03T04:43:54.361Z,7.7
2023-02-03T04:48:55.065Z,8.8
2023-02-03T04:53:55.603Z,11.3
2023-02-03T04:58:56.621Z,12.7
2023-02-03T05:04:56.566Z,47.5
2023-02-03T05:09:57.532Z,12.7
2023-02-03T05:14:58.465Z,9.5
2023-02-03T05:19:59.747Z,10.3
2023-02-03T05:25:00.361Z,10.8
2023-02-03T05:35:05.827Z,10.6
2023-02-03T05:40:06.254Z,10.7
2023-02-03T05:45:06.796Z,10.2
2023-02-03T05:50:07.466Z,11
2023-02-03T05:55:08.459Z,12.9
2023-02-03T06:00:09.167Z,12.5
2023-02-03T06:05:09.783Z,11.6
2023-02-03T06:10:11.035Z,12.8
2023-02-03T06:15:12.021Z,17.2
2023-02-03T06:20:13.333Z,21.9
2023-02-03T06:25:14.576Z,17.7
2023-02-03T06:30:16.637Z,14.3
2023-02-03T06:35:17.411Z,14.1
2023-02-03T06:40:18.371Z,14.5
2023-02-03T06:45:19.102Z,13.6
2023-02-03T06:50:19.717Z,13.1
2023-02-03T06:55:20.446Z,13.3
2023-02-03T07:00:21.504Z,17.6
2023-02-03T07:05:22.158Z,16.1
2023-02-03T07:10:22.906Z,17.6
2023-02-03T07:15:23.478Z,18.6
2023-02-03T07:20:23.963Z,13.9
2023-02-03T07:25:24.911Z,20.7
2023-02-03T07:30:26.060Z,16
2023-02-03T07:35:27.757Z,15.9
2023-02-03T07:40:28.660Z,24.7
2023-02-03T07:45:29.626Z,18.9
2023-02-03T07:50:30.932Z,15.9
2023-02-03T07:55:32.151Z,15.9
2023-02-03T08:00:33.073Z,33.6
2023-02-03T08:05:34.268Z,13.9
2023-02-03T08:10:35.726Z,14.8
2023-02-03T08:16:44.018Z,14.2
2023-02-03T08:21:44.480Z,15.5
2023-02-03T08:26:44.997Z,19
2023-02-03T08:31:45.815Z,13.1
2023-02-03T08:36:49.456Z,14.1
2023-02-03T08:41:50.050Z,12.6
2023-02-03T08:46:50.571Z,13.5
2023-02-03T08:51:51.043Z,12.4
2023-02-03T08:56:51.465Z,16.3
2023-02-03T09:01:52.137Z,16.7
2023-02-03T09:06:52.695Z,19.1
2023-02-03T09:11:53.362Z,13.1
2023-02-03T09:16:57.517Z,13.8
2023-02-03T09:21:58.487Z,11.2
2023-02-03T09:26:59.552Z,13.2
2023-02-03T09:32:00.355Z,17
2023-02-03T09:37:01.153Z,12.5
2023-02-03T09:42:01.960Z,13.2
2023-02-03T09:47:02.563Z,13.5
2023-02-03T09:52:03.224Z,13.6
2023-02-03T09:57:04.476Z,13.8
2023-02-03T10:02:05.087Z,13.8
2023-02-03T10:07:05.742Z,13.8
2023-02-03T10:12:06.258Z,21.9
2023-02-03T10:17:06.794Z,20
2023-02-03T10:22:07.448Z,21.7
2023-02-03T10:27:07.876Z,22.7
2023-02-03T10:32:08.497Z,22.1
2023-02-03T10:37:09.869Z,17.5
2023-02-03T10:42:10.458Z,13.2
2023-02-03T10:47:10.916Z,16.6
2023-02-03T10:52:11.538Z,16.8
2023-02-03T10:57:12.260Z,18.1
2023-02-03T11:02:12.739Z,9.7
2023-02-03T11:07:13.517Z,8.9
2023-02-03T11:12:14.225Z,8.5
2023-02-03T11:17:14.742Z,8.5
2023-02-03T11:22:15.452Z,9.8
2023-02-03T11:27:16.070Z,9.4
2023-02-03T11:32:16.991Z,11.4
2023-02-03T11:37:17.482Z,11.4
2023-02-03T11:42:18.165Z,8.6
2023-02-03T11:47:20.181Z,8.4
2023-02-03T11:52:23.689Z,5.9
2023-02-03T11:57:24.267Z,6.9
2023-02-03T12:02:25.875Z,7.5
2023-02-03T12:07:26.357Z,7.7
2023-02-03T12:12:26.835Z,8.2
2023-02-03T12:17:27.398Z,9.3
2023-02-03T12:22:27.930Z,7.1
2023-02-03T12:27:28.613Z,6.6
2023-02-03T12:32:29.115Z,8.8
2023-02-03T12:37:29.593Z,7.5
2023-02-03T12:42:30.184Z,10.3
2023-02-03T12:48:00.054Z,10.3
2023-02-03T12:53:00.553Z,11.5
2023-02-03T12:58:00.954Z,11.8
2023-02-03T13:03:01.442Z,15.2
2023-02-03T13:08:02.075Z,12.8
2023-02-03T13:13:02.593Z,12.2
2023-02-03T13:18:03.123Z,14.6
2023-02-03T13:23:03.627Z,15.5
2023-02-03T13:28:04.329Z,16.9
2023-02-03T13:33:08.345Z,16.1
2023-02-03T13:38:09.138Z,11.3
2023-02-03T13:43:09.810Z,12.3
2023-02-03T13:48:10.479Z,12.8
2023-02-03T13:53:11.024Z,13.2
2023-02-03T13:58:11.533Z,19.5
2023-02-03T14:03:12.415Z,14.7
2023-02-03T14:08:13.112Z,14.7
2023-02-03T14:13:13.687Z,16.7
2023-02-03T14:18:14.743Z,16.3
2023-02-03T14:23:15.369Z,15.8
2023-02-03T14:28:15.922Z,16.9
2023-02-03T14:33:19.336Z,17.3
2023-02-03T14:38:20.109Z,18.8
2023-02-03T14:43:20.632Z,19.1
2023-02-03T14:48:21.208Z,20.7
2023-02-03T14:53:21.790Z,19.7
2023-02-03T14:58:22.467Z,17.1
2023-02-03T15:03:23.172Z,20.4
2023-02-03T15:08:23.637Z,20.1
2023-02-03T15:13:24.296Z,30.8
2023-02-03T15:18:24.796Z,18.4
2023-02-03T15:23:25.173Z,22.4
2023-02-03T15:28:25.829Z,22.2
2023-02-03T15:33:26.562Z,22.2
2023-02-03T15:38:28.341Z,20.2
2023-02-03T15:43:28.867Z,22.5
2023-02-03T15:48:29.387Z,23.3
2023-02-03T15:53:41.241Z,24
2023-02-03T15:58:37.675Z,23.4
2023-02-03T16:03:38.195Z,24.1
2023-02-03T16:08:38.812Z,24.6
2023-02-03T16:13:39.324Z,23.3
2023-02-03T16:18:40.338Z,25.1
2023-02-03T16:23:41.035Z,24.7
2023-02-03T16:28:41.471Z,25.5
2023-02-03T16:33:42.193Z,28.4
2023-02-03T16:38:43.202Z,27
2023-02-03T16:43:44.604Z,29.9
2023-02-03T16:48:45.215Z,33.2
2023-02-03T16:53:46.123Z,26.1
2023-02-03T16:58:46.615Z,23.8
2023-02-03T17:03:47.201Z,24.3
2023-02-03T17:08:47.693Z,20.6
2023-02-03T17:13:48.301Z,20.5
2023-02-03T17:18:48.737Z,22.3
2023-02-03T17:23:49.174Z,22.4
2023-02-03T17:28:49.774Z,17
2023-02-03T17:33:50.320Z,16.8
2023-02-03T17:54:17.952Z,15
2023-02-03T17:59:21.849Z,16.1
2023-02-03T18:04:23.471Z,16.1
2023-02-03T18:09:24.719Z,12.9
2023-02-03T18:14:25.240Z,12.9
2023-02-03T18:19:25.715Z,13.4
2023-02-03T18:24:27.016Z,14
2023-02-03T18:29:29.103Z,14.2
2023-02-03T18:34:29.965Z,13.4
2023-02-03T18:39:30.506Z,14.2
2023-02-03T18:44:31.182Z,13.2
2023-02-03T18:49:32.243Z,13.5
2023-02-03T18:54:32.879Z,12.8
2023-02-03T18:59:33.642Z,14.3
2023-02-03T19:04:34.306Z,12.9
2023-02-03T19:09:38.204Z,11.5
2023-02-03T19:14:40.622Z,10.6
2023-02-03T19:19:41.135Z,10.4
2023-02-03T19:24:41.692Z,9.9
2023-02-03T19:29:42.286Z,10.6
2023-02-03T19:34:43.367Z,10.9
2023-02-03T19:39:43.880Z,11.3
2023-02-03T19:44:46.592Z,10.8
2023-02-03T19:49:49.168Z,13.3
2023-02-03T19:54:49.735Z,10.8
2023-02-03T19:59:50.285Z,9
2023-02-03T20:04:52.071Z,9.9
2023-02-03T20:09:52.662Z,10
2023-02-03T20:14:53.077Z,9.7
2023-02-03T20:19:53.503Z,8.1
2023-02-03T20:24:53.930Z,8.1
2023-02-03T20:29:54.382Z,8.3
2023-02-03T20:34:54.934Z,7.7
2023-02-03T20:39:55.513Z,12.5
2023-02-03T20:44:58.101Z,9.1
2023-02-03T20:49:58.804Z,6.8
2023-02-03T20:54:59.846Z,6.2
2023-02-03T21:00:00.525Z,5.4
2023-02-03T21:05:01.273Z,6.4
2023-02-03T21:10:01.762Z,4.9
2023-02-03T21:15:02.288Z,4.7
2023-02-03T21:20:13.351Z,4.6
2023-02-03T21:25:05.174Z,4.3
2023-02-03T21:30:05.738Z,4.7
2023-02-03T21:35:06.334Z,4.1
2023-02-03T21:40:07.819Z,4.8
2023-02-03T21:45:08.453Z,4
2023-02-03T21:50:11.084Z,7.5
2023-02-03T21:55:11.575Z,5.7
2023-02-03T22:00:12.012Z,5
2023-02-03T22:05:12.562Z,31.4
2023-02-03T22:10:13.676Z,6.3
2023-02-03T22:15:15.098Z,7.9
2023-02-03T22:20:15.626Z,7.6
2023-02-03T22:25:16.123Z,11.1
2023-02-03T22:30:16.623Z,7
2023-02-03T22:35:17.372Z,9.2
2023-02-03T22:40:17.873Z,12.7
2023-02-03T22:45:18.712Z,12.1
2023-02-03T22:50:24.697Z,9.2
2023-02-03T22:55:25.301Z,8
2023-02-03T23:00:25.720Z,11.3
2023-02-03T23:05:26.348Z,9.4
2023-02-03T23:10:26.837Z,10.7
2023-02-03T23:15:27.372Z,9.9
2023-02-03T23:20:28.094Z,8.3
2023-02-03T23:25:29.058Z,10.3
2023-02-03T23:30:30.023Z,9.8
2023-02-03T23:35:31.484Z,9.6
2023-02-03T23:40:32.300Z,10.1
2023-02-03T23:45:33.319Z,9.6
2023-02-03T23:50:33.891Z,12
2023-02-03T23:55:34.420Z,11.4
